Main page
METAR-TAF:

METAR-TAF

Airports :

Friday Harbor Airport

Friday Harbor, Washington, United States

latitude: 48-31-13N, longitude: 123-01-31W, elevation: 33 m

Current weather observation

The report was made 1 hour and 5 minutes ago, at 06:53 UTC
Wind 6 kt from the Southwest
Temperature 12°C
Humidity 67%
Pressure 1016 hPa
Visibility: 16.1 km
Few clouds at a height of 12000 ft

METAR: KFHR 240653Z AUTO 22006KT 10SM FEW120 12/06 A3000 RMK AO2 SLP158 T01220056

Time: 00:58 (07:58 UTC)


TAF: missing

Weather observations and forecasts of more than 4000 airports (METAR and TAF reports).

The available stations are represented by yellow and red dots on the map.

Hover mouse over dot to see the name of the station.

Then click to see weather observations and forecasts.

To change the map : click on the green buttons with a black cross to zoom in, on the green button with a dash to zoom out, or on the green arrows for adjacent maps.


METAR-TAF: